Time;durP1;ratioP1;P1;durP2;ratioP2;P2;SDS_P1;SDS_P2;PMS_P1;PMS_P2;Temp;Humidity;BMP_temperature;BMP_pressure;BME280_temperature;BME280_humidity;BME280_pressure;Samples;Min_cycle;Max_cycle;Signal;HPM_P1;HPM_P2
2022/12/11 00:04:03;;;;;;;23.95;11.98;;;;;;;-144.32;100.00;68061.97;10328127;28;20042;-80
2022/12/11 00:09:04;;;;;;;29.25;13.30;;;;;;;-144.32;100.00;68061.97;10324066;28;20043;-79
2022/12/11 00:14:04;;;;;;;26.08;13.68;;;;;;;-144.32;100.00;68061.97;10318714;28;20475;-80
2022/12/11 00:19:05;;;;;;;26.27;14.52;;;;;;;-144.32;100.00;68061.97;10338084;28;20049;-79
2022/12/11 00:24:06;;;;;;;30.27;14.93;;;;;;;-144.32;100.00;68061.97;10319266;28;20129;-80
2022/12/11 00:29:13;;;;;;;30.88;14.13;;;;;;;-144.32;100.00;68061.97;10297341;28;21018;-80
2022/12/11 00:34:16;;;;;;;30.50;14.10;;;;;;;-144.32;100.00;68061.97;10327241;28;20050;-80
2022/12/11 00:39:16;;;;;;;26.45;13.25;;;;;;;-144.32;100.00;68061.97;10318746;28;20232;-82
2022/12/11 00:44:18;;;;;;;28.95;14.40;;;;;;;-144.32;100.00;68061.97;10308696;28;20183;-81
2022/12/11 00:49:20;;;;;;;30.65;15.07;;;;;;;-144.32;100.00;68061.97;10327146;28;20523;-82
2022/12/11 00:54:20;;;;;;;31.58;15.52;;;;;;;-144.32;100.00;68061.97;10325381;28;20387;-83
2022/12/11 00:59:22;;;;;;;30.42;15.30;;;;;;;-144.32;100.00;68061.97;10324577;28;20062;-81
2022/12/11 01:04:25;;;;;;;29.67;15.20;;;;;;;-144.32;100.00;68061.97;10332666;28;20049;-83
2022/12/11 01:14:46;;;;;;;33.40;16.00;;;;;;;-144.32;100.00;68061.97;10337590;28;20078;-82
2022/12/11 01:19:46;;;;;;;30.48;16.00;;;;;;;-144.32;100.00;68061.97;10320356;28;20042;-82
2022/12/11 01:24:47;;;;;;;35.35;15.63;;;;;;;-144.32;100.00;68061.97;10320600;28;20395;-82
2022/12/11 01:29:48;;;;;;;34.05;16.65;;;;;;;-144.32;100.00;68061.97;10330096;28;20050;-80
2022/12/11 01:34:49;;;;;;;28.73;14.82;;;;;;;-144.32;100.00;68061.97;10359532;28;20027;-80
2022/12/11 01:39:52;;;;;;;29.85;15.07;;;;;;;-144.32;100.00;68061.97;10374489;28;20045;-77
2022/12/11 01:45:21;;;;;;;;;;;;;;;-144.32;100.00;68061.97;10372030;28;20058;-77
2022/12/11 01:50:23;;;;;;;33.90;16.75;;;;;;;-144.32;100.00;68061.97;10365795;28;19933;-77
2022/12/11 01:55:25;;;;;;;34.42;16.40;;;;;;;-144.32;100.00;68061.97;10370050;28;20094;-81
2022/12/11 02:00:28;;;;;;;34.60;17.67;;;;;;;-144.32;100.00;68061.97;10354065;28;20034;-79
2022/12/11 02:05:28;;;;;;;33.97;15.48;;;;;;;-144.32;100.00;68061.97;10359012;28;20034;-77
2022/12/11 02:10:48;;;;;;;33.38;15.88;;;;;;;-144.32;100.00;68061.97;10363019;28;20042;-78
2022/12/11 02:15:58;;;;;;;33.47;16.52;;;;;;;-144.32;100.00;68061.97;10368444;28;20034;-79
2022/12/11 02:21:19;;;;;;;29.33;15.57;;;;;;;-144.32;100.00;68061.97;10334214;28;20501;-84
2022/12/11 02:26:29;;;;;;;29.98;16.30;;;;;;;-144.32;100.00;68061.97;10316470;28;20039;-80
2022/12/11 02:32:23;;;;;;;29.42;16.02;;;;;;;-144.32;100.00;68061.97;10314919;28;20046;-83
2022/12/11 02:37:31;;;;;;;30.00;15.15;;;;;;;-144.32;100.00;68061.97;10307178;28;20051;-82
2022/12/11 02:42:35;;;;;;;32.63;16.33;;;;;;;-144.32;100.00;68061.97;10328604;28;20141;-84
2022/12/11 02:47:37;;;;;;;31.35;15.60;;;;;;;-144.32;100.00;68061.97;10328596;28;20043;-85
2022/12/11 02:52:40;;;;;;;30.27;15.65;;;;;;;-144.32;100.00;68061.97;10329739;28;20057;-82
2022/12/11 02:57:49;;;;;;;31.98;15.95;;;;;;;-144.32;100.00;68061.97;10336279;28;20063;-84
2022/12/11 03:02:50;;;;;;;34.28;16.48;;;;;;;-144.32;100.00;68061.97;10330564;28;20711;-86
2022/12/11 03:07:54;;;;;;;32.40;15.60;;;;;;;-144.32;100.00;68061.97;10313516;28;20101;-83
2022/12/11 03:12:57;;;;;;;32.75;17.02;;;;;;;-144.32;100.00;68061.97;10316277;28;20121;-83
2022/12/11 03:18:16;;;;;;;;;;;;;;;-144.32;100.00;68061.97;10331259;28;20118;-83
2022/12/11 03:23:31;;;;;;;30.55;15.18;;;;;;;-144.32;100.00;68061.97;10319145;28;20401;-84
2022/12/11 03:28:53;;;;;;;31.42;15.52;;;;;;;-144.32;100.00;68061.97;10328216;28;20494;-83
2022/12/11 03:33:57;;;;;;;29.20;15.70;;;;;;;-144.32;100.00;68061.97;10314856;28;20105;-82
2022/12/11 03:39:09;;;;;;;28.83;15.88;;;;;;;-144.32;100.00;68061.97;10324760;28;20047;-86
2022/12/11 03:44:11;;;;;;;26.30;13.73;;;;;;;-144.32;100.00;68061.97;10343026;28;20042;-84
2022/12/11 03:49:16;;;;;;;31.10;16.48;;;;;;;-144.32;100.00;68061.97;10324649;28;20043;-79
2022/12/11 03:54:19;;;;;;;31.60;15.85;;;;;;;-144.32;100.00;68061.97;10321255;28;20044;-80
2022/12/11 03:59:19;;;;;;;39.22;17.95;;;;;;;-144.32;100.00;68061.97;10329978;28;20048;-81
2022/12/11 04:04:20;;;;;;;36.75;17.25;;;;;;;-144.32;100.00;68061.97;10332602;28;20122;-82
2022/12/11 04:09:20;;;;;;;35.17;17.58;;;;;;;-144.32;100.00;68061.97;10326980;28;20109;-83
2022/12/11 04:25:04;;;;;;;31.98;15.57;;;;;;;-144.32;100.00;68061.97;10366152;28;20022;-77
2022/12/11 04:30:08;;;;;;;30.65;16.83;;;;;;;-144.32;100.00;68061.97;10365255;28;20031;-81
2022/12/11 04:35:10;;;;;;;32.67;16.30;;;;;;;-144.32;100.00;68061.97;10354005;28;20023;-81
2022/12/11 04:40:13;;;;;;;30.77;15.57;;;;;;;-144.32;100.00;68061.97;10340928;28;20062;-82
2022/12/11 04:45:19;;;;;;;28.02;13.85;;;;;;;-144.32;100.00;68061.97;10336588;28;20054;-83
2022/12/11 04:50:21;;;;;;;28.05;13.45;;;;;;;-144.32;100.00;68061.97;10336629;28;20043;-84
2022/12/11 04:55:22;;;;;;;24.45;12.40;;;;;;;-144.32;100.00;68061.97;10329484;28;20047;-82
2022/12/11 05:00:23;;;;;;;25.05;12.32;;;;;;;-144.32;100.00;68061.97;10331362;28;20046;-81
2022/12/11 05:05:24;;;;;;;23.52;12.48;;;;;;;-144.32;100.00;68061.97;10321602;28;20026;-79
2022/12/11 05:10:24;;;;;;;27.55;13.57;;;;;;;-144.32;100.00;68061.97;10340213;28;20098;-79
2022/12/11 05:15:30;;;;;;;28.35;13.98;;;;;;;-144.32;100.00;68061.97;10324874;28;20089;-84
2022/12/11 05:20:33;;;;;;;27.58;14.35;;;;;;;-144.32;100.00;68061.97;10314684;28;20042;-81
2022/12/11 05:25:36;;;;;;;27.85;14.23;;;;;;;-144.32;100.00;68061.97;10341088;28;20180;-77
2022/12/11 05:30:37;;;;;;;30.85;15.88;;;;;;;-144.32;100.00;68061.97;10363704;28;20046;-80
2022/12/11 05:35:46;;;;;;;33.50;15.83;;;;;;;-144.32;100.00;68061.97;10361808;28;20027;-79
2022/12/11 05:41:07;;;;;;;33.28;15.52;;;;;;;-144.32;100.00;68061.97;10371810;28;20227;-78
2022/12/11 05:46:17;;;;;;;33.00;15.85;;;;;;;-144.32;100.00;68061.97;10348526;28;20031;-80
2022/12/11 05:51:22;;;;;;;31.75;15.35;;;;;;;-144.32;100.00;68061.97;10361805;28;20050;-80
2022/12/11 05:56:27;;;;;;;38.45;16.25;;;;;;;-144.32;100.00;68061.97;10340315;28;20053;-83
2022/12/11 06:01:34;;;;;;;33.85;17.67;;;;;;;-144.32;100.00;68061.97;10313094;28;20042;-81
2022/12/11 06:06:35;;;;;;;35.25;17.10;;;;;;;-144.32;100.00;68061.97;10306521;28;20490;-84
2022/12/11 06:11:36;;;;;;;32.08;15.75;;;;;;;-144.32;100.00;68061.97;10316597;28;20057;-81
2022/12/11 06:16:38;;;;;;;34.08;16.63;;;;;;;-144.32;100.00;68061.97;10313631;28;20772;-82
2022/12/11 06:21:38;;;;;;;40.33;17.27;;;;;;;-144.32;100.00;68061.97;10310834;28;20553;-82
2022/12/11 06:26:39;;;;;;;33.92;16.73;;;;;;;-144.32;100.00;68061.97;10315197;28;20045;-81
2022/12/11 06:31:39;;;;;;;32.70;16.10;;;;;;;-144.32;100.00;68061.97;10314329;28;20042;-84
2022/12/11 06:36:40;;;;;;;35.17;16.55;;;;;;;-144.32;100.00;68061.97;10351975;28;20034;-79
2022/12/11 06:41:41;;;;;;;38.95;17.70;;;;;;;-144.32;100.00;68061.97;10349907;28;20050;-78
2022/12/11 06:46:41;;;;;;;35.65;17.27;;;;;;;-144.32;100.00;68061.97;10317278;28;20046;-77
2022/12/11 06:51:44;;;;;;;36.92;16.23;;;;;;;-144.32;100.00;68061.97;10305592;28;20054;-76
2022/12/11 06:56:45;;;;;;;33.35;16.38;;;;;;;-144.32;100.00;68061.97;10319277;28;20046;-79
2022/12/11 07:01:47;;;;;;;30.90;16.02;;;;;;;-144.32;100.00;68061.97;10330453;28;20141;-81
2022/12/11 07:06:48;;;;;;;34.28;16.88;;;;;;;-144.32;100.00;68061.97;10326035;28;20047;-81
2022/12/11 07:11:49;;;;;;;32.17;16.05;;;;;;;-144.32;100.00;68061.97;10337157;28;20041;-77
2022/12/11 07:16:50;;;;;;;29.08;15.13;;;;;;;-144.32;100.00;68061.97;10356234;28;20050;-80
2022/12/11 07:21:50;;;;;;;30.52;15.40;;;;;;;-144.32;100.00;68061.97;10319813;28;20145;-81
2022/12/11 07:26:51;;;;;;;26.45;14.77;;;;;;;-144.32;100.00;68061.97;10326708;28;20048;-82
2022/12/11 07:31:53;;;;;;;25.65;13.75;;;;;;;-144.32;100.00;68061.97;10329284;28;20093;-82
2022/12/11 07:36:58;;;;;;;27.92;14.32;;;;;;;-144.32;100.00;68061.97;10660535;23;20193;-83
2022/12/11 07:41:59;;;;;;;27.70;15.63;;;;;;;-144.32;100.00;68061.97;10289625;28;20048;-87
2022/12/11 07:46:59;;;;;;;27.92;14.75;;;;;;;-144.32;100.00;68061.97;10289858;28;20237;-84
2022/12/11 07:52:00;;;;;;;27.67;14.52;;;;;;;-144.32;100.00;68061.97;10282313;28;20066;-79
2022/12/11 07:57:00;;;;;;;27.13;14.82;;;;;;;-144.32;100.00;68061.97;10282228;28;20050;-83
2022/12/11 08:02:01;;;;;;;29.17;15.50;;;;;;;-144.32;100.00;68061.97;10285029;28;20544;-80
2022/12/11 08:07:01;;;;;;;24.73;13.80;;;;;;;-144.32;100.00;68061.97;10281570;28;20066;-84
2022/12/11 08:12:02;;;;;;;28.35;15.57;;;;;;;-144.32;100.00;68061.97;10274954;28;20069;-82
2022/12/11 08:17:02;;;;;;;23.75;13.88;;;;;;;-144.32;100.00;68061.97;10276674;28;20046;-85
2022/12/11 08:22:03;;;;;;;27.83;15.35;;;;;;;-144.32;100.00;68061.97;10302785;28;20035;-83
2022/12/11 08:27:04;;;;;;;23.30;13.75;;;;;;;-144.32;100.00;68061.97;10322888;28;20498;-80
2022/12/11 08:32:04;;;;;;;24.50;13.77;;;;;;;-144.32;100.00;68061.97;10314321;28;20038;-80
2022/12/11 08:37:05;;;;;;;25.35;14.93;;;;;;;-144.32;100.00;68061.97;10311026;28;20046;-80
2022/12/11 08:42:06;;;;;;;25.65;13.65;;;;;;;-144.32;100.00;68061.97;10340363;28;20066;-82
2022/12/11 08:47:08;;;;;;;23.90;13.70;;;;;;;-144.32;100.00;68061.97;10345303;28;20038;-79
2022/12/11 08:52:09;;;;;;;25.37;13.93;;;;;;;-144.32;100.00;68061.97;10339734;28;20077;-77
2022/12/11 08:57:09;;;;;;;37.85;19.52;;;;;;;-144.32;100.00;68061.97;10358830;28;20045;-77
2022/12/11 09:02:13;;;;;;;23.42;12.68;;;;;;;-144.32;100.00;68061.97;10330079;28;20058;-79
2022/12/11 09:07:15;;;;;;;23.65;11.93;;;;;;;-144.32;100.00;68061.97;10316117;28;20035;-80
2022/12/11 09:12:16;;;;;;;21.83;12.25;;;;;;;-144.32;100.00;68061.97;10316491;28;20069;-79
2022/12/11 09:17:16;;;;;;;24.50;12.98;;;;;;;-144.32;100.00;68061.97;10348790;28;20066;-77
2022/12/11 09:22:19;;;;;;;24.85;13.07;;;;;;;-144.32;100.00;68061.97;10337086;28;20066;-77
2022/12/11 09:27:20;;;;;;;20.00;12.77;;;;;;;-144.32;100.00;68061.97;10308068;28;20081;-77
2022/12/11 09:32:20;;;;;;;23.35;13.63;;;;;;;-144.32;100.00;68061.97;10320326;28;20466;-78
2022/12/11 09:37:21;;;;;;;20.90;11.70;;;;;;;-144.32;100.00;68061.97;10307933;28;20035;-79
2022/12/11 09:42:40;;;;;;;20.80;11.10;;;;;;;-144.32;100.00;68061.97;10315743;28;20042;-78
2022/12/11 09:47:49;;;;;;;20.00;9.90;;;;;;;-144.32;100.00;68061.97;10312912;28;20056;-80
2022/12/11 09:53:07;;;;;;;17.20;9.52;;;;;;;-144.32;100.00;68061.97;10317317;28;20042;-79
2022/12/11 09:58:32;;;;;;;17.83;9.20;;;;;;;-144.32;100.00;68061.97;10332639;28;20054;-78
2022/12/11 10:03:54;;;;;;;18.13;10.00;;;;;;;-144.32;100.00;68061.97;10306976;28;20383;-77
2022/12/11 10:09:04;;;;;;;18.70;10.20;;;;;;;-144.32;100.00;68061.97;10298784;28;20057;-78
2022/12/11 10:14:19;;;;;;;19.33;10.25;;;;;;;-144.32;100.00;68061.97;10312121;28;20062;-78
2022/12/11 10:19:25;;;;;;;18.77;10.63;;;;;;;-144.32;100.00;68061.97;10315143;28;20051;-79
2022/12/11 10:24:49;;;;;;;19.15;10.57;;;;;;;-144.32;100.00;68061.97;10311947;28;20069;-78
2022/12/11 10:30:21;;;;;;;19.77;10.93;;;;;;;-144.32;100.00;68061.97;10315056;28;20038;-80
2022/12/11 10:35:43;;;;;;;18.25;10.40;;;;;;;-144.32;100.00;68061.97;10310467;28;20061;-79
2022/12/11 10:40:48;;;;;;;19.95;10.52;;;;;;;-144.32;100.00;68061.97;10315651;28;20050;-79
2022/12/11 10:45:51;;;;;;;18.80;10.98;;;;;;;-144.32;100.00;68061.97;10309851;28;20057;-80
2022/12/11 10:50:58;;;;;;;19.60;11.80;;;;;;;-144.32;100.00;68061.97;10308223;28;20058;-80
2022/12/11 10:56:00;;;;;;;19.65;10.60;;;;;;;-144.32;100.00;68061.97;10304363;28;20388;-81
2022/12/11 11:01:08;;;;;;;22.85;11.57;;;;;;;-144.32;100.00;68061.97;10311933;28;20081;-78
2022/12/11 11:06:17;;;;;;;20.45;10.73;;;;;;;-144.32;100.00;68061.97;10322038;28;20046;-79
2022/12/11 11:11:28;;;;;;;20.70;11.50;;;;;;;-144.32;100.00;68061.97;10325940;28;20046;-78
2022/12/11 11:16:29;;;;;;;17.85;10.40;;;;;;;-144.32;100.00;68061.97;10328134;28;20077;-77
2022/12/11 11:21:30;;;;;;;19.42;10.75;;;;;;;-144.32;100.00;68061.97;10334351;28;20102;-79
2022/12/11 11:26:33;;;;;;;19.77;9.32;;;;;;;-144.32;100.00;68061.97;10345609;28;20482;-80
2022/12/11 11:31:34;;;;;;;16.80;9.05;;;;;;;-144.32;100.00;68061.97;10337186;28;20047;-71
2022/12/11 11:36:36;;;;;;;16.20;8.90;;;;;;;-144.32;100.00;68061.97;10330840;28;20041;-79
2022/12/11 11:41:50;;;;;;;13.80;8.43;;;;;;;-144.32;100.00;68061.97;10330989;28;20038;-71
2022/12/11 11:47:13;;;;;;;;;;;;;;;-144.32;100.00;68061.97;10332496;28;20085;-73
2022/12/11 11:52:14;;;;;;;15.93;9.00;;;;;;;-144.32;100.00;68061.97;10326503;28;20603;-80
2022/12/11 11:57:20;;;;;;;13.70;9.32;;;;;;;-144.32;100.00;68061.97;10344495;28;20043;-80
2022/12/11 12:02:21;;;;;;;18.80;9.25;;;;;;;-144.32;100.00;68061.97;10343094;28;20041;-81
2022/12/11 12:08:03;;;;;;;18.23;10.20;;;;;;;-144.32;100.00;68061.97;10342303;28;20231;-78
2022/12/11 12:13:11;;;;;;;16.23;9.43;;;;;;;-144.32;100.00;68061.97;10306759;28;20084;-77
2022/12/11 12:18:21;;;;;;;14.60;8.65;;;;;;;-144.32;100.00;68061.97;10335627;28;20488;-79
2022/12/11 12:23:35;;;;;;;14.68;9.10;;;;;;;-144.32;100.00;68061.97;10331305;28;20117;-78
2022/12/11 12:29:14;;;;;;;12.07;7.70;;;;;;;-144.32;100.00;68061.97;10330269;28;20490;-80
2022/12/11 12:34:21;;;;;;;14.75;7.88;;;;;;;-144.32;100.00;68061.97;10329080;28;20380;-78
2022/12/11 12:39:46;;;;;;;12.02;6.97;;;;;;;-144.32;100.00;68061.97;10326962;28;20042;-79
2022/12/11 12:45:03;;;;;;;13.65;7.80;;;;;;;-144.32;100.00;68061.97;10337171;28;20042;-79
2022/12/11 12:50:11;;;;;;;10.75;7.00;;;;;;;-144.32;100.00;68061.97;10328683;28;20532;-79
2022/12/11 12:55:15;;;;;;;10.48;7.28;;;;;;;-144.32;100.00;68061.97;10334065;28;20082;-78
2022/12/11 13:00:30;;;;;;;11.48;6.75;;;;;;;-144.32;100.00;68061.97;10312522;28;20073;-78
2022/12/11 13:05:34;;;;;;;13.05;7.40;;;;;;;-144.32;100.00;68061.97;10299899;28;20046;-78
2022/12/11 13:10:36;;;;;;;8.43;5.45;;;;;;;-144.32;100.00;68061.97;10329531;28;20044;-78
2022/12/11 13:15:42;;;;;;;13.13;7.03;;;;;;;-144.32;100.00;68061.97;10313860;28;21099;-79
2022/12/11 13:20:49;;;;;;;12.75;6.32;;;;;;;-144.32;100.00;68061.97;10318716;28;20050;-77
2022/12/11 13:26:00;;;;;;;13.55;7.55;;;;;;;-144.32;100.00;68061.97;10303927;28;20112;-79
2022/12/11 13:31:25;;;;;;;12.45;6.88;;;;;;;-144.32;100.00;68061.97;10310792;28;20775;-79
2022/12/11 13:36:30;;;;;;;11.77;6.68;;;;;;;-144.32;100.00;68061.97;10309240;28;20411;-82
2022/12/11 13:41:35;;;;;;;14.15;6.75;;;;;;;-144.32;100.00;68061.97;10307357;28;20070;-79
2022/12/11 13:46:38;;;;;;;14.35;7.65;;;;;;;-144.32;100.00;68061.97;10309342;28;20054;-80
2022/12/11 13:51:38;;;;;;;;;;;;;;;-144.32;100.00;68061.97;10312425;28;20046;-80
2022/12/11 13:56:40;;;;;;;12.73;7.07;;;;;;;-144.32;100.00;68061.97;10310464;28;20029;-80
2022/12/11 14:01:41;;;;;;;12.07;6.78;;;;;;;-144.32;100.00;68061.97;10312508;28;20051;-79
2022/12/11 14:06:42;;;;;;;12.60;6.85;;;;;;;-144.32;100.00;68061.97;10311244;28;20038;-79
2022/12/11 14:11:45;;;;;;;11.93;6.72;;;;;;;-144.32;100.00;68061.97;10312168;28;20034;-79
2022/12/11 14:16:48;;;;;;;12.23;7.47;;;;;;;-144.32;100.00;68061.97;10316233;28;20065;-79
2022/12/11 14:22:00;;;;;;;13.07;7.50;;;;;;;-144.32;100.00;68061.97;10314593;28;20035;-80
2022/12/11 14:27:03;;;;;;;18.63;8.38;;;;;;;-144.32;100.00;68061.97;10312274;28;20477;-81
2022/12/11 14:32:06;;;;;;;13.77;7.35;;;;;;;-144.32;100.00;68061.97;10323527;28;20050;-81
2022/12/11 14:37:07;;;;;;;14.70;7.63;;;;;;;-144.32;100.00;68061.97;10335273;28;20473;-79
2022/12/11 14:42:33;;;;;;;16.17;8.35;;;;;;;-144.32;100.00;68061.97;10333752;28;20061;-79
2022/12/11 14:47:39;;;;;;;17.48;9.07;;;;;;;-144.32;100.00;68061.97;10358494;28;20034;-79
2022/12/11 14:52:46;;;;;;;15.32;8.48;;;;;;;-144.32;100.00;68061.97;10355045;28;20577;-79
2022/12/11 14:57:50;;;;;;;11.48;6.75;;;;;;;-144.32;100.00;68061.97;10338097;28;20096;-80
2022/12/11 15:03:00;;;;;;;12.55;6.55;;;;;;;-144.32;100.00;68061.97;10333932;28;20094;-80
2022/12/11 15:08:29;;;;;;;14.95;7.78;;;;;;;-144.32;100.00;68061.97;10345524;28;20111;-79
2022/12/11 15:13:35;;;;;;;13.73;6.78;;;;;;;-144.32;100.00;68061.97;10350381;28;20105;-79
2022/12/11 15:18:39;;;;;;;13.77;6.90;;;;;;;-144.32;100.00;68061.97;10359045;28;20507;-81
2022/12/11 15:23:58;;;;;;;15.65;8.63;;;;;;;-144.32;100.00;68061.97;10337511;28;20074;-80
2022/12/11 15:29:01;;;;;;;13.05;7.60;;;;;;;-144.32;100.00;68061.97;10320736;28;20108;-79
2022/12/11 15:34:01;;;;;;;15.10;8.05;;;;;;;-144.32;100.00;68061.97;10325188;28;20429;-80
2022/12/11 15:39:08;;;;;;;16.48;8.60;;;;;;;-144.32;100.00;68061.97;10322749;28;20062;-80
2022/12/11 15:44:18;;;;;;;17.98;9.10;;;;;;;-144.32;100.00;68061.97;10325986;28;20062;-79
2022/12/11 15:49:22;;;;;;;18.08;10.70;;;;;;;-144.32;100.00;68061.97;10320945;28;20577;-82
2022/12/11 15:54:24;;;;;;;17.90;10.02;;;;;;;-144.32;100.00;68061.97;10310985;28;20057;-80
2022/12/11 15:59:26;;;;;;;22.67;10.02;;;;;;;-144.32;100.00;68061.97;10307703;28;20042;-80
2022/12/11 16:04:26;;;;;;;20.67;10.73;;;;;;;-144.32;100.00;68061.97;10310549;28;20131;-81
2022/12/11 16:09:27;;;;;;;23.63;10.93;;;;;;;-144.32;100.00;68061.97;10322488;28;20047;-81
2022/12/11 16:14:28;;;;;;;17.20;10.00;;;;;;;-144.32;100.00;68061.97;10311169;28;20723;-81
2022/12/11 16:19:29;;;;;;;20.70;10.55;;;;;;;-144.32;100.00;68061.97;10308346;28;20046;-79
2022/12/11 16:24:31;;;;;;;21.83;11.43;;;;;;;-144.32;100.00;68061.97;10305110;28;20079;-82
2022/12/11 16:29:41;;;;;;;20.35;10.20;;;;;;;-144.32;100.00;68061.97;10318748;28;20957;-79
2022/12/11 16:34:41;;;;;;;19.48;10.13;;;;;;;-144.32;100.00;68061.97;10322647;28;20053;-85
2022/12/11 16:39:44;;;;;;;21.40;10.50;;;;;;;-144.32;100.00;68061.97;10316626;28;20994;-81
2022/12/11 16:44:47;;;;;;;20.20;10.35;;;;;;;-144.32;100.00;68061.97;10311464;28;20050;-80
2022/12/11 16:49:49;;;;;;;19.98;10.38;;;;;;;-144.32;100.00;68061.97;10319684;28;20038;-81
2022/12/11 16:54:50;;;;;;;21.83;9.93;;;;;;;-144.32;100.00;68061.97;10320234;28;20092;-82
2022/12/11 16:59:51;;;;;;;19.67;9.85;;;;;;;-144.32;100.00;68061.97;10329151;28;20137;-82
2022/12/11 17:04:52;;;;;;;18.15;9.40;;;;;;;-144.32;100.00;68061.97;10318253;28;20043;-81
2022/12/11 17:09:53;;;;;;;17.67;9.75;;;;;;;-144.32;100.00;68061.97;10359003;28;20030;-79
2022/12/11 17:14:56;;;;;;;19.10;9.30;;;;;;;-144.32;100.00;68061.97;10372137;28;20046;-79
2022/12/11 17:19:56;;;;;;;14.88;8.90;;;;;;;-144.32;100.00;68061.97;10377102;28;20034;-80
2022/12/11 17:24:58;;;;;;;17.10;9.82;;;;;;;-144.32;100.00;68061.97;10338323;28;20050;-82
2022/12/11 17:29:59;;;;;;;20.52;9.43;;;;;;;-144.32;100.00;68061.97;10315997;28;20078;-79
2022/12/11 17:34:59;;;;;;;18.10;9.52;;;;;;;-144.32;100.00;68061.97;10312512;28;20543;-80
2022/12/11 17:40:00;;;;;;;16.90;9.35;;;;;;;-144.32;100.00;68061.97;10314308;28;20121;-79
2022/12/11 17:45:01;;;;;;;22.05;10.70;;;;;;;-144.32;100.00;68061.97;10311097;28;20384;-83
2022/12/11 17:50:02;;;;;;;21.15;10.93;;;;;;;-144.32;100.00;68061.97;10313152;28;20077;-78
2022/12/11 17:55:05;;;;;;;25.13;12.02;;;;;;;-144.32;100.00;68061.97;10307977;28;20514;-80
2022/12/11 18:00:06;;;;;;;23.13;12.95;;;;;;;-144.32;100.00;68061.97;10323230;28;20133;-78
2022/12/11 18:05:12;;;;;;;25.17;12.95;;;;;;;-144.32;100.00;68061.97;10319815;28;20058;-79
2022/12/11 18:10:16;;;;;;;29.25;14.25;;;;;;;-144.32;100.00;68061.97;10304987;28;20491;-78
2022/12/11 18:15:19;;;;;;;;;;;;;;;-144.32;100.00;68061.97;10311499;28;20134;-78
2022/12/11 18:20:20;;;;;;;29.15;14.43;;;;;;;-144.32;100.00;68061.97;10324953;28;19930;-80
2022/12/11 18:25:21;;;;;;;30.15;14.18;;;;;;;-144.32;100.00;68061.97;10348846;28;20049;-78
2022/12/11 18:30:23;;;;;;;28.77;15.57;;;;;;;-144.32;100.00;68061.97;10324532;28;20050;-78
2022/12/11 18:35:24;;;;;;;31.48;15.45;;;;;;;-144.32;100.00;68061.97;10349513;28;20071;-79
2022/12/11 18:40:24;;;;;;;29.83;15.30;;;;;;;-144.32;100.00;68061.97;10311674;28;20046;-79
2022/12/11 18:45:25;;;;;;;32.28;16.95;;;;;;;-144.32;100.00;68061.97;10320741;28;20071;-82
2022/12/11 18:50:27;;;;;;;34.47;17.38;;;;;;;-144.32;100.00;68061.97;10319603;28;20049;-80
2022/12/11 18:55:28;;;;;;;36.80;16.58;;;;;;;-144.32;100.00;68061.97;10318179;28;20140;-81
2022/12/11 19:00:28;;;;;;;33.70;18.50;;;;;;;-144.32;100.00;68061.97;10351879;28;20252;-81
2022/12/11 19:05:32;;;;;;;30.50;16.35;;;;;;;-144.32;100.00;68061.97;10343515;28;20050;-78
2022/12/11 19:10:38;;;;;;;32.83;16.73;;;;;;;-144.32;100.00;68061.97;10344380;28;20096;-81
2022/12/11 19:15:41;;;;;;;34.25;17.77;;;;;;;-144.32;100.00;68061.97;10351560;28;20043;-84
2022/12/11 19:20:42;;;;;;;36.60;18.80;;;;;;;-144.32;100.00;68061.97;10355539;28;20054;-80
2022/12/11 19:25:45;;;;;;;41.25;18.52;;;;;;;-144.32;100.00;68061.97;10351412;28;20065;-81
2022/12/11 19:30:50;;;;;;;31.15;17.70;;;;;;;-144.32;100.00;68061.97;10387476;28;20026;-80
2022/12/11 19:36:04;;;;;;;33.08;18.50;;;;;;;-144.32;100.00;68061.97;10409851;28;20037;-81
2022/12/11 19:41:12;;;;;;;36.17;18.73;;;;;;;-144.32;100.00;68061.97;10402622;28;20064;-79
2022/12/11 19:46:14;;;;;;;38.15;18.38;;;;;;;-144.32;100.00;68061.97;10380276;28;20046;-80
2022/12/11 19:51:21;;;;;;;33.70;17.70;;;;;;;-144.32;100.00;68061.97;10362330;28;20443;-82
2022/12/11 19:56:22;;;;;;;33.58;17.88;;;;;;;-144.32;100.00;68061.97;10351695;28;20130;-81
2022/12/11 20:01:29;;;;;;;35.35;18.70;;;;;;;-144.32;100.00;68061.97;10351862;28;20769;-79
2022/12/11 20:06:32;;;;;;;35.97;18.60;;;;;;;-144.32;100.00;68061.97;10360413;28;20793;-79
2022/12/11 20:11:33;;;;;;;;;;;;;;;-144.32;100.00;68061.97;10363650;28;20117;-82
2022/12/11 20:16:34;;;;;;;33.45;16.40;;;;;;;-144.32;100.00;68061.97;10354657;28;19959;-79
2022/12/11 20:21:34;;;;;;;34.05;17.05;;;;;;;-144.32;100.00;68061.97;10350042;28;20536;-80
2022/12/11 20:26:37;;;;;;;32.45;18.10;;;;;;;-144.32;100.00;68061.97;10349216;28;20132;-79
2022/12/11 20:31:38;;;;;;;32.92;18.02;;;;;;;-144.32;100.00;68061.97;10352820;28;20488;-83
2022/12/11 20:36:39;;;;;;;35.83;17.27;;;;;;;-144.32;100.00;68061.97;10352054;28;20069;-80
2022/12/11 20:41:39;;;;;;;37.60;17.42;;;;;;;-144.32;100.00;68061.97;10370769;28;20053;-83
2022/12/11 20:46:40;;;;;;;35.45;18.15;;;;;;;-144.32;100.00;68061.97;10361604;28;20045;-82
2022/12/11 20:51:41;;;;;;;40.78;19.38;;;;;;;-144.32;100.00;68061.97;10361085;28;20136;-80
2022/12/11 20:56:41;;;;;;;39.47;19.42;;;;;;;-144.32;100.00;68061.97;10350147;28;20149;-78
2022/12/11 21:01:43;;;;;;;41.92;19.65;;;;;;;-144.32;100.00;68061.97;10355543;28;20096;-80
2022/12/11 21:06:43;;;;;;;33.90;17.90;;;;;;;-144.32;100.00;68061.97;10349004;28;20101;-81
2022/12/11 21:11:47;;;;;;;39.17;19.15;;;;;;;-144.32;100.00;68061.97;10341140;28;20042;-80
2022/12/11 21:16:48;;;;;;;36.80;16.67;;;;;;;-144.32;100.00;68061.97;10355720;28;20097;-79
2022/12/11 21:21:49;;;;;;;34.10;17.98;;;;;;;-144.32;100.00;68061.97;10370308;28;20111;-79
2022/12/11 21:26:49;;;;;;;33.13;16.60;;;;;;;-144.32;100.00;68061.97;10335939;28;21822;-79
2022/12/11 21:31:50;;;;;;;33.08;16.10;;;;;;;-144.32;100.00;68061.97;10343462;28;20168;-81
2022/12/11 21:36:55;;;;;;;34.70;16.73;;;;;;;-144.32;100.00;68061.97;10348471;28;20042;-82
2022/12/11 21:41:56;;;;;;;32.88;16.58;;;;;;;-144.32;100.00;68061.97;10382487;28;20039;-79
2022/12/11 21:46:57;;;;;;;34.67;16.23;;;;;;;-144.32;100.00;68061.97;10357718;28;20046;-80
2022/12/11 21:51:58;;;;;;;35.22;17.38;;;;;;;-144.32;100.00;68061.97;10366015;28;20030;-76
2022/12/11 21:56:58;;;;;;;35.05;17.20;;;;;;;-144.32;100.00;68061.97;10381103;28;20062;-80
2022/12/11 22:02:02;;;;;;;37.83;18.05;;;;;;;-144.32;100.00;68061.97;10393997;28;20049;-81
2022/12/11 22:07:03;;;;;;;35.67;16.95;;;;;;;-144.32;100.00;68061.97;10379022;28;20534;-80
2022/12/11 22:12:04;;;;;;;39.17;17.83;;;;;;;-144.32;100.00;68061.97;10348513;28;20046;-81
2022/12/11 22:17:04;;;;;;;35.13;17.17;;;;;;;-144.32;100.00;68061.97;10358184;28;20110;-84
2022/12/11 22:22:05;;;;;;;32.80;16.27;;;;;;;-144.32;100.00;68061.97;10364435;28;20057;-79
2022/12/11 22:27:05;;;;;;;36.03;16.48;;;;;;;-144.32;100.00;68061.97;10367087;28;20069;-81
2022/12/11 22:32:06;;;;;;;37.85;17.23;;;;;;;-144.32;100.00;68061.97;10368426;28;20060;-79
2022/12/11 22:37:06;;;;;;;35.78;15.95;;;;;;;-144.32;100.00;68061.97;10375507;28;20054;-81
2022/12/11 22:42:07;;;;;;;34.65;15.45;;;;;;;-144.32;100.00;68061.97;10350542;28;20038;-82